Bookmark and Share
Track history (hours):
 

Nantucket

More information available from US FCC via Universal Licensing System and Coast Guard Vessel Documentation Center.

Last reported at 2014-Apr-23 01:12 UTC. Time now 2014-Apr-24 04:30 UTC.
Position N 41°27' W 070°36'.

Length 66 m; draft 4 m.

Type: Passenger vessel. MMSI: 367324580.

NotesDate/timePositionNaut miles runAvg speedWind from/ knotsBaromVisibWave heightAir tempDewpointWater temp
2014-Apr-23 01:12N 41°27' W 070°36'5 8.1
2014-Apr-23 00:33N 41°31' W 070°40'4 4.3
2014-Apr-22 23:33N 41°29' W 070°35'2 2.5
2014-Apr-22 22:33N 41°30' W 070°39'1 0.7
2014-Apr-22 21:34N 41°30' W 070°39'4 3.4
2014-Apr-22 20:27N 41°27' W 070°36'5 4.1
2014-Apr-22 19:12N 41°31' W 070°40'2 1.2
2014-Apr-22 17:33N 41°30' W 070°38'1 1.2
2014-Apr-22 16:33N 41°30' W 070°40'4 3.8
2014-Apr-22 15:25N 41°27' W 070°36'5 4.2
2014-Apr-22 14:11N 41°31' W 070°40'5 4.8
2014-Apr-22 13:07N 41°27' W 070°36'3 5.6
2014-Apr-22 12:33N 41°30' W 070°39'1 1.2
2014-Apr-22 11:33N 41°30' W 070°40'4 4.2
2014-Apr-22 10:34N 41°28' W 070°35'5 4.7
2014-Apr-22 09:32N 41°31' W 070°40'0 0.0
2014-Apr-22 08:33N 41°31' W 070°40'0 0.0
2014-Apr-22 07:33N 41°31' W 070°40'0 0.0
2014-Apr-22 06:33N 41°31' W 070°40'0 0.0
2014-Apr-22 05:34N 41°31' W 070°40'0 0.0
2014-Apr-22 04:33N 41°31' W 070°40'0 0.0
2014-Apr-22 03:33N 41°31' W 070°40'0 0.0
2014-Apr-22 02:33N 41°31' W 070°40'5 3.9
2014-Apr-22 01:14N 41°27' W 070°36'5 7.6
2014-Apr-22 00:34N 41°31' W 070°40'4 4.3
2014-Apr-21 23:33N 41°29' W 070°35'2 2.2
2014-Apr-21 22:33N 41°30' W 070°38'1 0.7
2014-Apr-21 21:27N 41°30' W 070°39'4 3.8
2014-Apr-21 20:29N 41°27' W 070°36'5 5.5
2014-Apr-21 19:33N 41°31' W 070°40'5 5.2
2014-Apr-21 18:34N 41°27' W 070°36'3 3.2
2014-Apr-21 17:33N 41°30' W 070°38'1 0.8
2014-Apr-21 16:33N 41°30' W 070°39'4 2.9
2014-Apr-21 15:19N 41°29' W 070°35'5 6.1
2014-Apr-21 14:33N 41°31' W 070°40'2 1.1
2014-Apr-21 12:34N 41°30' W 070°38'2 1.6
2014-Apr-21 11:33N 41°31' W 070°40'4 3.9
2014-Apr-21 10:33N 41°29' W 070°35'4 4.2
2014-Apr-21 09:33N 41°31' W 070°40'0 0.0
2014-Apr-21 08:33N 41°31' W 070°40'0 0.0
2014-Apr-21 07:33N 41°31' W 070°40'0 0.0
2014-Apr-21 06:33N 41°31' W 070°40'0 0.0
2014-Apr-21 05:33N 41°31' W 070°40'0 0.0
2014-Apr-21 04:33N 41°31' W 070°40'0 0.0
2014-Apr-21 03:33N 41°31' W 070°40'0 0.0
2014-Apr-21 02:21N 41°31' W 070°40'5 3.8
2014-Apr-21 01:08N 41°29' W 070°35'5 7.2
2014-Apr-21 00:29N 41°31' W 070°40'1 0.2
2014-Apr-20 21:33N 41°31' W 070°40'4 0.3
2014-Apr-20 10:33N 41°29' W 070°35'3 0.1
2014-Apr-19 10:15N 41°30' W 070°39'2 0.9
2014-Apr-19 08:26N 41°31' W 070°40'0 0.0
2014-Apr-19 07:33N 41°31' W 070°40'0 0.0
2014-Apr-19 06:33N 41°31' W 070°40'0 0.0
2014-Apr-19 05:26N 41°31' W 070°40'0 0.0
2014-Apr-19 04:30N 41°31' W 070°40'0 0.0
2014-Apr-19 03:33N 41°31' W 070°40'0 0.0
2014-Apr-19 02:33N 41°31' W 070°40'0 0.0
2014-Apr-19 00:32N 41°31' W 070°40'2 0.8
2014-Apr-18 22:29N 41°30' W 070°39'0 0.4
2014-Apr-18 21:25N 41°30' W 070°39'3 2.3
2014-Apr-18 20:15N 41°29' W 070°35'4 5.8
2014-Apr-18 19:31N 41°31' W 070°40'1 0.4
2014-Apr-18 17:27N 41°31' W 070°40'2 1.7
2014-Apr-18 16:28N 41°30' W 070°38'2 1.9
2014-Apr-18 15:13N 41°29' W 070°35'4 6.1
2014-Apr-18 14:30N 41°31' W 070°40'2 1.1
2014-Apr-18 12:33N 41°30' W 070°38'2 2.0
2014-Apr-18 11:26N 41°29' W 070°35'0 0.2
2014-Apr-18 10:34N 41°29' W 070°35'4 1.3
2014-Apr-18 07:19N 41°31' W 070°40'  
2014-Apr-15 15:15N 41°29' W 070°35'1 0.1
2014-Apr-14 22:34N 41°30' W 070°37'2 1.0
2014-Apr-14 20:33N 41°30' W 070°39'4 3.8
2014-Apr-14 19:32N 41°27' W 070°36'5 5.1
2014-Apr-14 18:32N 41°31' W 070°40'2 0.9
2014-Apr-14 16:33N 41°30' W 070°39'1 0.6
2014-Apr-14 15:30N 41°30' W 070°39'1 0.7
2014-Apr-14 13:33N 41°31' W 070°40'2 1.0
2014-Apr-14 11:32N 41°30' W 070°38'1 0.5
2014-Apr-14 10:33N 41°30' W 070°37'2 1.9
2014-Apr-14 09:33N 41°29' W 070°35'4 4.2
2014-Apr-14 08:32N 41°31' W 070°40'0 0.0
2014-Apr-14 07:33N 41°31' W 070°40'0 0.0
2014-Apr-14 06:33N 41°31' W 070°40'0 0.0
2014-Apr-14 05:33N 41°31' W 070°40'2 0.3
2014-Apr-13 22:30N 41°30' W 070°39'3 2.4
2014-Apr-13 21:13N 41°29' W 070°35'1 1.1
2014-Apr-13 20:20N 41°28' W 070°35'5 6.1
2014-Apr-13 19:31N 41°31' W 070°40'2 0.9
2014-Apr-13 17:34N 41°30' W 070°39'2 1.7
2014-Apr-13 16:33N 41°31' W 070°40'5 5.1
2014-Apr-13 15:33N 41°27' W 070°36'5 5.1
2014-Apr-13 14:34N 41°31' W 070°40'5 5.2
2014-Apr-13 13:33N 41°27' W 070°36'3 2.8
2014-Apr-13 12:33N 41°30' W 070°38'2 1.7
2014-Apr-13 11:33N 41°30' W 070°40'4 4.3
2014-Apr-13 10:33N 41°27' W 070°36'0 0.0
2014-Apr-13 09:28N 41°27' W 070°36'0 0.0
2014-Apr-13 01:33N 41°27' W 070°36'  

Dump ship's entire track history

sailing weather and tide predictions

Nantucket — WBQ6814 — position and weather